Time;durP1;ratioP1;P1;durP2;ratioP2;P2;SDS_P1;SDS_P2;PMS_P1;PMS_P2;Temp;Humidity;BMP_temperature;BMP_pressure;BME280_temperature;BME280_humidity;BME280_pressure;Samples;Min_cycle;Max_cycle;Signal;HPM_P1;HPM_P2
2023/01/01 00:01:10;;;;;;;20.10;13.37;;;;;;;6.86;89.93;96288.22;5052965;28;20430;-81
2023/01/01 00:03:39;;;;;;;20.00;12.27;;;;;;;6.90;89.87;96295.81;5052854;28;20450;-80
2023/01/01 00:06:06;;;;;;;22.30;13.23;;;;;;;6.83;89.19;96297.88;5053003;28;20448;-80
2023/01/01 00:08:34;;;;;;;15.57;11.40;;;;;;;6.92;88.91;96298.34;5052892;28;20434;-81
2023/01/01 00:11:01;;;;;;;21.43;12.40;;;;;;;6.92;88.81;96298.34;5052719;28;20487;-81
2023/01/01 00:13:28;;;;;;;16.70;11.40;;;;;;;6.93;88.79;96300.03;5053024;28;20512;-81
2023/01/01 00:15:55;;;;;;;13.27;10.40;;;;;;;6.95;89.11;96298.22;5052479;28;20438;-80
2023/01/01 00:18:22;;;;;;;21.83;16.40;;;;;;;6.89;88.75;96304.56;5052900;28;20452;-81
2023/01/01 00:20:50;;;;;;;63.80;35.50;;;;;;;6.88;87.55;96307.25;5052595;28;20496;-80
2023/01/01 00:23:17;;;;;;;56.77;36.80;;;;;;;6.80;87.17;96311.06;5052761;28;20443;-81
2023/01/01 00:25:44;;;;;;;61.77;38.30;;;;;;;6.69;87.06;96315.13;5052620;28;20459;-81
2023/01/01 00:28:10;;;;;;;80.30;40.43;;;;;;;6.57;86.79;96313.91;5000919;28;20438;-80
2023/01/01 00:30:40;;;;;;;65.30;40.27;;;;;;;6.48;86.97;96319.56;5052460;28;20486;-81
2023/01/01 00:33:07;;;;;;;84.67;49.53;;;;;;;6.42;87.11;96325.06;5052903;28;20549;-80
2023/01/01 00:35:34;;;;;;;103.53;57.43;;;;;;;6.20;88.56;96331.22;5002713;28;20482;-81
2023/01/01 00:38:02;;;;;;;124.10;66.93;;;;;;;6.15;89.33;96335.78;5052523;28;20483;-80
2023/01/01 00:40:29;;;;;;;116.90;66.83;;;;;;;6.06;90.17;96325.75;5052352;28;20450;-81
2023/01/01 00:42:56;;;;;;;113.23;65.03;;;;;;;5.97;90.36;96325.31;5052540;28;20438;-80
2023/01/01 00:45:23;;;;;;;111.83;60.87;;;;;;;5.99;90.50;96328.72;5052284;28;20449;-81
2023/01/01 00:47:50;;;;;;;101.03;59.67;;;;;;;6.01;90.56;96330.31;5052443;28;20458;-81
2023/01/01 00:50:17;;;;;;;95.67;57.43;;;;;;;5.98;89.95;96324.41;5052437;28;21016;-80
2023/01/01 00:52:44;;;;;;;96.53;56.37;;;;;;;5.97;90.34;96326.16;5052337;28;20468;-80
2023/01/01 00:55:12;;;;;;;106.17;57.10;;;;;;;5.99;88.87;96332.16;5052191;28;20492;-81
2023/01/01 00:57:39;;;;;;;77.70;52.13;;;;;;;5.99;89.59;96337.38;5052626;28;20515;-81
2023/01/01 01:00:07;;;;;;;85.47;52.40;;;;;;;6.01;89.46;96330.31;5052511;28;20455;-81
2023/01/01 01:02:34;;;;;;;98.73;54.50;;;;;;;6.03;89.22;96333.72;5052410;28;20452;-81
2023/01/01 01:05:03;;;;;;;89.27;53.03;;;;;;;6.08;90.43;96331.78;5052197;28;20503;-80
2023/01/01 01:07:38;;;;;;;85.87;53.00;;;;;;;6.09;90.64;96325.66;5052512;28;20457;-81
2023/01/01 01:10:06;;;;;;;98.90;52.23;;;;;;;6.08;89.69;96330.94;5056307;28;20564;-81
2023/01/01 01:12:35;;;;;;;88.80;54.23;;;;;;;6.09;89.86;96327.41;5056274;28;20435;-81
2023/01/01 01:15:02;;;;;;;91.33;55.83;;;;;;;6.11;89.48;96325.59;5056404;28;20516;-81
2023/01/01 01:17:29;;;;;;;80.17;52.00;;;;;;;6.15;90.09;96314.94;5055990;28;20439;-81
2023/01/01 01:19:56;;;;;;;92.30;51.40;;;;;;;6.15;89.15;96320.16;5055871;28;20444;-81
2023/01/01 01:22:22;;;;;;;83.63;49.83;;;;;;;6.17;89.67;96315.72;5055859;28;20455;-81
2023/01/01 01:24:50;;;;;;;79.17;49.33;;;;;;;6.16;89.78;96311.44;5056139;28;20443;-80
2023/01/01 01:27:17;;;;;;;71.87;49.63;;;;;;;6.18;90.60;96313.97;5055974;28;20508;-80
2023/01/01 01:29:45;;;;;;;85.00;46.40;;;;;;;6.14;90.38;96307.19;5055556;28;20510;-81
2023/01/01 01:32:12;;;;;;;71.87;40.60;;;;;;;6.14;90.62;96309.81;5056000;28;20443;-81
2023/01/01 01:34:39;;;;;;;59.30;36.63;;;;;;;5.98;90.22;96308.78;5055611;28;20503;-81
2023/01/01 01:37:05;;;;;;;49.47;29.60;;;;;;;5.94;90.19;96310.69;5056028;28;21233;-81
2023/01/01 01:39:32;;;;;;;50.93;31.37;;;;;;;5.91;90.39;96308.22;5055890;28;20495;-81
2023/01/01 01:42:01;;;;;;;47.13;32.70;;;;;;;5.95;91.35;96309.75;5055500;28;20438;-80
2023/01/01 01:44:53;;;;;;;61.83;36.33;;;;;;;5.99;90.20;96310.47;5020305;28;20438;-80
2023/01/01 01:47:25;;;;;;;45.27;26.80;;;;;;;6.00;90.58;96318.22;5055199;28;20445;-81
2023/01/01 01:49:56;;;;;;;68.97;39.87;;;;;;;5.89;89.75;96312.59;5055389;28;20511;-81
2023/01/01 01:52:23;;;;;;;91.80;50.17;;;;;;;5.87;89.15;96315.28;5055444;28;20445;-81
2023/01/01 01:54:50;;;;;;;85.87;48.53;;;;;;;5.86;88.43;96317.97;5055302;28;20446;-80
2023/01/01 01:57:17;;;;;;;97.20;57.53;;;;;;;5.68;88.27;96311.78;5055326;28;20462;-80
2023/01/01 01:59:48;;;;;;;108.10;62.40;;;;;;;5.60;88.05;96317.31;5054965;28;20460;-80
2023/01/01 02:02:25;;;;;;;104.90;63.03;;;;;;;5.51;89.74;96309.91;5055066;28;20842;-81
2023/01/01 02:04:52;;;;;;;104.93;58.70;;;;;;;5.47;90.13;96312.66;5055079;28;20986;-81
2023/01/01 02:07:21;;;;;;;91.63;52.87;;;;;;;5.49;90.27;96310.84;5054933;28;20937;-81
2023/01/01 02:09:48;;;;;;;75.23;45.40;;;;;;;5.52;90.83;96314.19;5055045;28;20450;-81
2023/01/01 02:12:14;;;;;;;70.67;40.20;;;;;;;5.56;90.77;96313.16;5054725;28;20489;-80
2023/01/01 02:14:41;;;;;;;52.33;35.00;;;;;;;5.62;92.01;96316.41;5055362;28;20449;-81
2023/01/01 02:17:15;;;;;;;63.93;43.13;;;;;;;5.69;90.99;96318.66;5054684;28;20929;-81
2023/01/01 02:20:02;;;;;;;76.43;46.00;;;;;;;5.72;90.78;96322.91;5054541;28;20873;-80
2023/01/01 02:22:37;;;;;;;49.10;30.03;;;;;;;5.76;91.32;96319.25;5054607;28;20495;-81
2023/01/01 02:25:15;;;;;;;69.73;41.73;;;;;;;5.79;89.63;96327.81;5054531;28;20508;-81
2023/01/01 02:27:52;;;;;;;69.87;41.20;;;;;;;5.73;89.57;96325.44;5054475;28;20455;-81
2023/01/01 02:30:20;;;;;;;73.33;43.40;;;;;;;5.57;89.88;96329.63;5054483;28;20485;-80
2023/01/01 02:32:51;;;;;;;71.20;44.57;;;;;;;5.56;89.69;96328.78;5054707;28;20512;-81
2023/01/01 02:35:37;;;;;;;67.63;42.57;;;;;;;5.57;90.07;96334.81;5054323;28;20449;-81
2023/01/01 02:38:08;;;;;;;71.10;43.33;;;;;;;5.53;89.29;96333.25;5054698;28;20540;-81
2023/01/01 02:40:38;;;;;;;46.23;30.80;;;;;;;5.50;89.86;96325.59;5054212;28;20508;-81
2023/01/01 02:43:05;;;;;;;46.20;31.40;;;;;;;5.52;89.75;96326.38;5002992;28;20434;-80
2023/01/01 02:45:34;;;;;;;38.03;23.87;;;;;;;5.54;90.70;96322.78;5054362;28;20426;-80
2023/01/01 02:48:04;;;;;;;31.10;22.03;;;;;;;5.56;90.25;96320.97;5054177;28;20932;-81
2023/01/01 02:50:32;;;;;;;29.50;19.97;;;;;;;5.56;91.13;96325.31;5019448;28;20862;-81
2023/01/01 02:53:11;;;;;;;25.40;18.17;;;;;;;5.59;90.70;96323.44;5054463;28;20445;-81
2023/01/01 02:55:50;;;;;;;27.80;16.57;;;;;;;5.59;90.63;96326.03;5054140;28;20873;-81
2023/01/01 03:01:20;;;;;;;22.87;15.93;;;;;;;5.67;90.79;96311.84;5054065;28;20434;-81
2023/01/01 03:03:56;;;;;;;23.10;16.70;;;;;;;5.70;91.28;96306.50;5018878;28;20433;-81
2023/01/01 03:06:28;;;;;;;22.67;15.63;;;;;;;5.73;90.67;96306.34;5053765;28;20445;-80
2023/01/01 03:09:08;;;;;;;27.53;16.40;;;;;;;5.73;91.36;96309.81;5053863;28;20445;-81
2023/01/01 03:11:43;;;;;;;26.57;17.20;;;;;;;5.77;90.36;96310.53;5053781;28;20489;-81
2023/01/01 03:14:19;;;;;;;26.73;17.80;;;;;;;5.79;89.34;96309.56;5053755;28;20454;-81
2023/01/01 03:16:51;;;;;;;27.03;19.23;;;;;;;5.77;89.29;96315.72;5053718;28;20447;-81
2023/01/01 03:19:22;;;;;;;46.23;25.37;;;;;;;5.72;89.52;96315.09;5053549;28;20445;-81
2023/01/01 03:21:51;;;;;;;65.20;39.10;;;;;;;5.47;88.36;96321.31;5053871;28;20868;-81
2023/01/01 03:24:23;;;;;;;85.27;50.33;;;;;;;5.36;89.07;96325.28;5053510;28;20446;-81
2023/01/01 03:26:54;;;;;;;101.07;55.37;;;;;;;5.08;90.11;96310.81;5053295;28;20532;-81
2023/01/01 03:29:24;;;;;;;92.37;53.90;;;;;;;5.02;89.64;96318.88;5053684;28;20450;-81
2023/01/01 03:31:56;;;;;;;85.40;50.23;;;;;;;5.01;90.67;96314.56;5052497;28;20845;-81
2023/01/01 03:34:30;;;;;;;85.83;47.00;;;;;;;5.01;89.97;96313.72;5002037;28;20434;-81
2023/01/01 03:37:00;;;;;;;77.97;47.60;;;;;;;5.03;89.67;96312.75;5053235;28;20531;-81
2023/01/01 03:39:32;;;;;;;77.03;44.77;;;;;;;5.06;89.32;96310.03;5053178;28;20442;-80
2023/01/01 03:42:10;;;;;;;76.77;44.60;;;;;;;5.07;89.98;96309.13;5053067;28;20966;-81
2023/01/01 03:44:44;;;;;;;77.07;44.27;;;;;;;5.10;90.09;96319.41;5053018;28;20438;-80
2023/01/01 03:47:13;;;;;;;75.57;46.60;;;;;;;5.09;90.43;96311.66;5053244;28;20444;-81
2023/01/01 03:49:40;;;;;;;72.53;43.40;;;;;;;5.09;90.56;96314.25;5053269;28;20944;-81
2023/01/01 03:52:22;;;;;;;80.63;46.80;;;;;;;4.98;90.58;96320.75;5053127;28;20484;-81
2023/01/01 03:54:57;;;;;;;76.90;44.87;;;;;;;4.93;91.26;96320.09;5018220;28;20837;-81
2023/01/01 03:57:31;;;;;;;72.00;42.87;;;;;;;4.96;91.32;96321.72;5053029;28;20510;-80
2023/01/01 04:00:04;;;;;;;75.87;43.63;;;;;;;5.00;92.58;96327.63;5018020;28;20437;-80
2023/01/01 04:02:38;;;;;;;70.97;45.43;;;;;;;5.03;94.75;96319.72;5019332;28;20450;-81
2023/01/01 04:05:07;;;;;;;76.07;44.90;;;;;;;5.00;94.21;96327.63;5053030;28;21005;-81
2023/01/01 04:07:34;;;;;;;77.13;45.70;;;;;;;4.94;93.76;96313.97;5052879;28;20507;-80
2023/01/01 04:10:15;;;;;;;78.80;43.20;;;;;;;5.00;92.18;96327.63;5053026;28;20445;-81
2023/01/01 04:12:44;;;;;;;66.47;41.70;;;;;;;4.98;91.21;96323.34;5052917;28;20481;-80
2023/01/01 04:15:11;;;;;;;73.87;42.07;;;;;;;5.02;91.29;96315.41;5052841;28;20519;-81
2023/01/01 04:17:39;;;;;;;80.23;42.00;;;;;;;5.04;90.38;96311.00;5053143;28;20925;-81
2023/01/01 04:20:08;;;;;;;79.83;45.07;;;;;;;5.01;91.47;96311.97;5052972;28;20453;-81
2023/01/01 04:22:34;;;;;;;76.13;46.13;;;;;;;5.08;91.49;96317.75;5052588;28;20456;-81
2023/01/01 04:25:01;;;;;;;73.50;45.10;;;;;;;5.00;92.36;96319.84;5052652;28;20441;-80
2023/01/01 04:27:28;;;;;;;77.50;44.47;;;;;;;4.96;92.12;96330.38;5052794;28;20929;-81
2023/01/01 04:29:55;;;;;;;77.87;46.57;;;;;;;4.97;93.25;96332.06;5052454;28;20933;-81
2023/01/01 04:32:22;;;;;;;86.93;47.13;;;;;;;4.97;93.02;96339.88;5052657;28;20539;-81
2023/01/01 04:34:50;;;;;;;56.43;35.63;;;;;;;5.00;92.34;96333.69;5001940;28;20481;-81
2023/01/01 04:37:17;;;;;;;83.83;47.00;;;;;;;5.02;92.28;96339.69;5052487;28;20874;-81
2023/01/01 04:39:43;;;;;;;64.30;35.97;;;;;;;4.94;93.25;96339.13;5053034;28;20445;-80
2023/01/01 04:42:10;;;;;;;70.77;39.37;;;;;;;4.87;93.12;96345.47;5053895;28;20489;-81
2023/01/01 04:44:37;;;;;;;76.20;46.20;;;;;;;4.78;92.24;96343.22;5056714;28;20457;-80
2023/01/01 04:47:04;;;;;;;79.40;44.87;;;;;;;4.70;91.34;96340.94;5056539;28;20850;-81
2023/01/01 04:49:31;;;;;;;73.23;44.93;;;;;;;4.67;90.35;96338.47;5071119;28;20514;-80
2023/01/01 04:51:59;;;;;;;86.40;46.20;;;;;;;4.68;90.81;96345.34;5060487;28;21053;-80
2023/01/01 04:54:26;;;;;;;71.30;42.27;;;;;;;4.65;90.18;96335.06;5068423;28;20720;-80
2023/01/01 04:56:52;;;;;;;64.93;41.10;;;;;;;4.62;89.20;96340.34;5076010;28;20448;-80
2023/01/01 04:59:19;;;;;;;58.67;38.70;;;;;;;4.55;89.37;96331.09;5076708;28;20440;-80
2023/01/01 05:01:46;;;;;;;56.83;34.73;;;;;;;4.59;90.82;96330.94;5076370;28;20517;-80
2023/01/01 05:04:14;;;;;;;53.07;34.90;;;;;;;4.63;90.71;96336.88;5076140;28;20449;-80
2023/01/01 05:06:41;;;;;;;51.40;30.43;;;;;;;4.70;91.59;96332.28;5076196;28;20807;-81
2023/01/01 05:09:11;;;;;;;46.33;31.50;;;;;;;4.77;91.50;96336.34;5076159;28;20444;-80
2023/01/01 05:11:38;;;;;;;54.00;30.83;;;;;;;4.81;91.52;96333.56;5075933;28;20560;-81
2023/01/01 05:14:05;;;;;;;39.00;25.80;;;;;;;4.87;91.93;96332.47;5075827;28;20932;-81
2023/01/01 05:16:34;;;;;;;42.10;25.60;;;;;;;4.92;91.30;96334.00;5024492;28;20440;-81
2023/01/01 05:19:02;;;;;;;40.97;22.53;;;;;;;4.97;91.40;96334.66;5075642;28;20860;-81
2023/01/01 05:21:31;;;;;;;32.10;22.17;;;;;;;5.01;91.02;96335.38;5076028;28;20861;-80
2023/01/01 05:24:00;;;;;;;23.97;18.70;;;;;;;5.03;91.17;96335.31;5075652;28;20527;-80
2023/01/01 05:26:31;;;;;;;30.53;18.13;;;;;;;5.05;91.11;96342.16;5075664;28;20483;-80
2023/01/01 05:28:59;;;;;;;26.97;19.00;;;;;;;5.06;91.17;96335.19;5075728;28;20446;-81
2023/01/01 05:31:29;;;;;;;30.63;19.87;;;;;;;5.05;89.99;96336.09;5075693;28;20480;-81
2023/01/01 05:33:57;;;;;;;31.17;20.83;;;;;;;5.03;89.83;96340.53;5075537;28;20449;-81
2023/01/01 05:36:26;;;;;;;37.80;22.50;;;;;;;5.03;89.86;96337.91;5087588;28;20557;-80
2023/01/01 05:38:53;;;;;;;34.43;21.63;;;;;;;5.03;90.70;96343.13;5095783;28;20439;-80
2023/01/01 05:41:21;;;;;;;38.63;23.77;;;;;;;4.96;89.91;96345.97;5095598;28;20432;-80
2023/01/01 05:43:50;;;;;;;51.77;30.93;;;;;;;4.80;89.61;96352.66;5095542;28;20448;-80
2023/01/01 05:46:19;;;;;;;101.57;46.17;;;;;;;4.75;88.63;96356.34;5059929;28;20432;-80
2023/01/01 05:48:46;;;;;;;87.73;42.60;;;;;;;4.62;87.92;96361.16;5095709;28;20435;-80
2023/01/01 05:51:14;;;;;;;57.93;34.87;;;;;;;4.56;88.11;96356.19;5095333;28;20524;-80
2023/01/01 05:53:43;;;;;;;79.57;46.30;;;;;;;4.52;89.29;96355.47;5094780;28;20444;-80
2023/01/01 05:56:11;;;;;;;61.93;38.80;;;;;;;4.44;89.97;96352.31;5095561;28;20447;-80
2023/01/01 05:58:38;;;;;;;79.80;43.40;;;;;;;4.39;89.66;96349.06;5095456;28;20508;-80
2023/01/01 06:01:11;;;;;;;84.90;44.50;;;;;;;4.37;90.06;96347.41;5095258;28;20991;-80
2023/01/01 06:03:39;;;;;;;71.87;42.33;;;;;;;4.41;90.63;96354.19;5095526;28;20476;-80
2023/01/01 06:06:06;;;;;;;85.30;42.80;;;;;;;4.43;89.78;96357.56;5095321;28;20503;-81
2023/01/01 06:08:33;;;;;;;66.83;40.97;;;;;;;4.44;91.14;96349.72;5059564;28;20435;-81
2023/01/01 06:11:00;;;;;;;63.37;39.10;;;;;;;4.44;90.76;96354.91;5095160;28;20489;-80
2023/01/01 06:13:27;;;;;;;83.60;43.33;;;;;;;4.48;90.12;96355.66;5095243;28;20483;-80
2023/01/01 06:15:55;;;;;;;63.47;40.87;;;;;;;4.56;91.58;96351.00;5094835;28;20452;-81
2023/01/01 06:18:24;;;;;;;79.23;41.43;;;;;;;4.62;91.31;96348.16;5095164;28;20500;-81
2023/01/01 06:20:51;;;;;;;79.07;42.27;;;;;;;4.68;91.36;96345.34;5095074;28;20447;-80
2023/01/01 06:23:18;;;;;;;52.90;35.33;;;;;;;4.73;91.91;96359.00;5095003;28;20497;-81
2023/01/01 06:25:45;;;;;;;81.70;43.50;;;;;;;4.78;91.75;96353.63;5042605;28;20440;-81
2023/01/01 06:28:11;;;;;;;57.73;37.27;;;;;;;4.86;91.59;96361.97;5094759;28;20439;-81
2023/01/01 06:30:38;;;;;;;60.40;35.87;;;;;;;4.90;92.07;96358.34;5042924;28;20821;-80
2023/01/01 06:33:06;;;;;;;38.63;26.07;;;;;;;4.94;91.79;96359.94;5094480;28;20993;-80
2023/01/01 06:35:34;;;;;;;43.90;27.37;;;;;;;5.00;92.25;96362.31;5094855;28;20809;-81
2023/01/01 06:38:01;;;;;;;38.30;26.43;;;;;;;5.07;91.70;96368.09;5094383;28;20886;-80
2023/01/01 06:40:27;;;;;;;31.47;21.57;;;;;;;5.13;92.24;96370.47;5094505;28;20440;-80
2023/01/01 06:42:54;;;;;;;44.40;26.27;;;;;;;5.18;90.93;96373.72;5042650;28;20440;-80
2023/01/01 06:45:21;;;;;;;70.80;40.33;;;;;;;5.13;90.29;96373.06;5094342;28;20439;-80
2023/01/01 06:47:48;;;;;;;97.97;46.50;;;;;;;5.04;89.85;96381.22;5094360;28;20942;-81
2023/01/01 06:50:14;;;;;;;75.60;44.17;;;;;;;5.02;90.60;96391.69;5094277;28;20436;-81
2023/01/01 06:52:42;;;;;;;76.47;48.57;;;;;;;4.95;90.41;96393.69;5094359;28;20831;-81
2023/01/01 06:55:09;;;;;;;93.30;54.77;;;;;;;4.94;91.60;96397.22;5094343;28;20444;-81
2023/01/01 06:57:36;;;;;;;73.40;47.00;;;;;;;5.03;92.50;96397.75;5094425;28;20486;-80
2023/01/01 07:00:04;;;;;;;74.43;44.93;;;;;;;5.09;92.93;96406.16;5042455;28;20447;-80
2023/01/01 07:02:30;;;;;;;82.10;49.53;;;;;;;5.21;92.69;96397.03;5094135;28;20936;-81
2023/01/01 07:04:57;;;;;;;83.93;49.50;;;;;;;5.31;93.01;96400.97;5093451;28;20509;-81
2023/01/01 07:07:24;;;;;;;78.23;49.43;;;;;;;5.44;92.95;96396.94;5093815;28;20443;-80
2023/01/01 07:09:52;;;;;;;71.43;42.90;;;;;;;5.57;93.75;96402.50;5093762;28;20836;-81
2023/01/01 07:12:19;;;;;;;58.47;38.60;;;;;;;5.69;93.65;96402.00;5093636;28;20489;-81
2023/01/01 07:14:45;;;;;;;56.10;34.87;;;;;;;5.83;93.36;96401.44;5093821;28;20513;-80
2023/01/01 07:17:12;;;;;;;38.47;24.83;;;;;;;5.91;92.33;96402.00;5093927;28;20478;-80
2023/01/01 07:19:39;;;;;;;34.03;22.50;;;;;;;6.00;91.34;96408.56;5041962;28;20486;-80
2023/01/01 07:22:06;;;;;;;35.83;20.20;;;;;;;6.05;90.78;96404.00;5093825;28;20448;-81
2023/01/01 07:24:32;;;;;;;26.83;15.80;;;;;;;6.11;90.76;96409.81;5094024;28;20441;-80
2023/01/01 07:27:00;;;;;;;21.33;14.60;;;;;;;6.08;90.41;96409.09;5093649;28;20520;-80
2023/01/01 07:29:27;;;;;;;21.60;15.47;;;;;;;6.16;91.01;96407.84;5094080;28;20868;-81
2023/01/01 07:31:54;;;;;;;25.30;17.37;;;;;;;6.17;90.56;96400.88;5093374;28;20488;-80
2023/01/01 07:34:22;;;;;;;31.33;20.20;;;;;;;6.27;91.07;96402.16;5058281;28;20679;-80
2023/01/01 07:36:49;;;;;;;44.07;25.13;;;;;;;6.38;90.88;96394.75;5093209;28;20499;-80
2023/01/01 07:39:16;;;;;;;49.03;28.20;;;;;;;6.51;91.31;96398.47;5093479;28;20486;-80
2023/01/01 07:41:43;;;;;;;60.77;38.00;;;;;;;6.59;91.68;96395.53;5093406;28;20445;-81
2023/01/01 07:44:11;;;;;;;76.63;47.43;;;;;;;6.67;91.73;96401.25;5093426;28;20445;-81
2023/01/01 07:46:38;;;;;;;67.43;41.27;;;;;;;6.72;91.60;96396.69;5093566;28;20446;-81
2023/01/01 07:49:05;;;;;;;60.00;38.30;;;;;;;6.64;91.73;96392.69;5093197;28;20449;-81
2023/01/01 07:51:31;;;;;;;76.00;44.10;;;;;;;6.58;92.45;96401.66;5093127;28;20927;-81
2023/01/01 07:53:58;;;;;;;62.20;41.17;;;;;;;6.58;92.16;96396.44;5092917;28;20967;-81
2023/01/01 07:56:25;;;;;;;70.73;41.03;;;;;;;6.28;94.30;96400.41;5092976;28;20493;-81
2023/01/01 07:58:52;;;;;;;66.50;40.87;;;;;;;6.24;95.30;96398.84;5057208;28;20503;-80
2023/01/01 08:01:20;;;;;;;95.97;47.50;;;;;;;6.20;96.69;96393.78;5093138;28;20446;-81
2023/01/01 08:03:51;;;;;;;99.13;51.53;;;;;;;5.95;98.60;96392.28;5092921;28;20931;-80
2023/01/01 08:06:18;;;;;;;85.50;49.50;;;;;;;5.89;99.09;96398.56;5093191;28;20519;-81
2023/01/01 08:08:45;;;;;;;98.93;52.13;;;;;;;5.84;99.65;96396.16;5092770;28;20506;-81
2023/01/01 08:11:11;;;;;;;102.57;55.70;;;;;;;5.84;100.00;96397.94;5093240;28;20449;-80
2023/01/01 08:13:38;;;;;;;98.97;55.23;;;;;;;5.96;100.00;96399.19;5092724;28;21001;-80
2023/01/01 08:16:05;;;;;;;79.83;50.57;;;;;;;6.18;99.61;96411.25;5040683;28;20927;-81
2023/01/01 08:18:34;;;;;;;77.77;45.03;;;;;;;6.25;99.43;96410.97;5092600;28;20959;-81
2023/01/01 08:21:00;;;;;;;76.00;41.03;;;;;;;6.06;99.13;96409.13;5092817;28;20444;-81
2023/01/01 08:23:27;;;;;;;68.60;41.60;;;;;;;6.02;100.00;96407.59;5092537;28;20931;-80
2023/01/01 08:25:57;;;;;;;88.77;49.00;;;;;;;6.20;99.98;96401.59;5092686;28;20444;-81
2023/01/01 08:28:24;;;;;;;87.73;49.40;;;;;;;6.30;100.00;96409.00;5092776;28;20438;-81
2023/01/01 08:30:51;;;;;;;74.50;45.40;;;;;;;6.40;100.00;96412.91;5040744;28;20445;-80
2023/01/01 08:33:18;;;;;;;79.57;44.80;;;;;;;6.31;100.00;96418.50;5092560;28;20530;-81
2023/01/01 08:35:46;;;;;;;70.93;45.07;;;;;;;6.52;100.00;96410.59;5092568;28;20472;-80
2023/01/01 08:38:14;;;;;;;72.90;41.03;;;;;;;6.38;98.46;96420.81;5040502;28;20843;-80
2023/01/01 08:40:41;;;;;;;68.90;41.33;;;;;;;6.30;99.93;96419.44;5092964;28;20441;-81
2023/01/01 08:43:07;;;;;;;64.57;40.83;;;;;;;6.24;99.81;96415.34;5092705;28;20490;-80
2023/01/01 08:45:34;;;;;;;73.13;42.10;;;;;;;6.42;99.18;96419.75;5092579;28;20450;-81
2023/01/01 08:48:01;;;;;;;75.93;42.40;;;;;;;6.55;99.33;96419.19;5092144;28;20855;-80
2023/01/01 08:50:28;;;;;;;64.63;39.47;;;;;;;6.68;98.99;96410.78;5092572;28;20995;-81
2023/01/01 08:52:57;;;;;;;68.00;39.60;;;;;;;6.80;98.85;96420.66;5092354;28;20887;-81
2023/01/01 08:55:24;;;;;;;60.30;39.53;;;;;;;6.93;97.67;96418.31;5092739;28;20449;-81
2023/01/01 08:57:51;;;;;;;70.63;42.10;;;;;;;6.91;97.05;96411.47;5092555;28;21088;-80
2023/01/01 09:00:17;;;;;;;63.83;37.17;;;;;;;7.02;96.67;96407.47;5092444;28;20448;-81
2023/01/01 09:02:44;;;;;;;59.33;37.17;;;;;;;6.94;95.84;96411.31;5040515;28;20436;-80
2023/01/01 09:05:11;;;;;;;66.77;40.80;;;;;;;6.71;96.53;96408.03;5040360;28;20451;-81
2023/01/01 09:07:38;;;;;;;73.43;43.90;;;;;;;6.75;97.49;96411.34;5092346;28;20999;-81
2023/01/01 09:10:07;;;;;;;75.63;40.53;;;;;;;6.79;97.77;96405.06;5092563;28;20491;-81
2023/01/01 09:12:34;;;;;;;70.07;42.37;;;;;;;6.81;97.23;96403.22;5056670;28;20478;-80
2023/01/01 09:15:01;;;;;;;76.23;44.33;;;;;;;6.86;97.60;96388.19;5040299;28;20562;-80
2023/01/01 09:17:28;;;;;;;70.60;45.17;;;;;;;6.72;98.08;96396.69;5040315;28;20450;-80
2023/01/01 09:19:55;;;;;;;76.07;43.73;;;;;;;6.81;98.57;96383.19;5092415;28;20460;-81
2023/01/01 09:22:21;;;;;;;67.97;44.80;;;;;;;6.98;97.81;96382.44;5092137;28;20840;-80
2023/01/01 09:24:48;;;;;;;71.73;43.60;;;;;;;7.14;97.75;96382.53;5092427;28;20440;-80
2023/01/01 09:27:16;;;;;;;76.30;45.83;;;;;;;7.26;97.37;96371.53;5092329;28;20438;-81
2023/01/01 09:29:43;;;;;;;77.03;46.17;;;;;;;7.31;97.14;96366.09;5094152;28;20784;-81
2023/01/01 09:32:10;;;;;;;77.63;46.17;;;;;;;7.41;96.51;96372.53;5096249;28;20836;-81
2023/01/01 09:34:36;;;;;;;73.83;43.97;;;;;;;7.58;95.65;96367.34;5096045;28;20489;-81
2023/01/01 09:37:06;;;;;;;68.27;42.20;;;;;;;7.70;95.40;96356.28;5096057;28;20879;-80
2023/01/01 09:39:32;;;;;;;77.97;41.77;;;;;;;7.90;94.64;96360.50;5095698;28;20454;-81
2023/01/01 09:42:22;;;;;;;73.10;44.77;;;;;;;7.97;93.62;96359.28;5095944;28;20501;-81
2023/01/01 09:45:08;;;;;;;79.00;44.30;;;;;;;8.05;92.87;96351.88;5095849;28;20450;-80
2023/01/01 09:47:40;;;;;;;71.53;43.43;;;;;;;8.26;92.29;96354.31;5095874;28;20439;-81
2023/01/01 09:50:13;;;;;;;71.77;45.40;;;;;;;8.45;91.76;96356.84;5096029;28;20440;-81
2023/01/01 09:52:45;;;;;;;69.30;45.10;;;;;;;8.43;89.83;96361.31;5095514;28;20835;-80
2023/01/01 09:55:19;;;;;;;67.93;43.23;;;;;;;8.41;90.47;96358.78;5095748;28;20845;-81
2023/01/01 09:57:48;;;;;;;68.33;41.87;;;;;;;8.57;89.55;96353.56;5095442;28;20456;-81
2023/01/01 10:00:17;;;;;;;67.13;41.63;;;;;;;8.62;89.52;96352.38;5095657;28;20436;-81
2023/01/01 10:02:54;;;;;;;64.13;38.43;;;;;;;8.77;89.26;96353.34;5095341;28;20488;-81
2023/01/01 10:05:31;;;;;;;59.97;37.33;;;;;;;8.59;88.85;96341.25;5094977;28;20926;-81
2023/01/01 10:08:02;;;;;;;61.97;37.67;;;;;;;8.63;88.57;96343.59;5095602;28;20431;-81
2023/01/01 10:10:38;;;;;;;54.23;37.03;;;;;;;8.84;88.22;96351.25;5095425;28;20451;-81
2023/01/01 10:13:20;;;;;;;63.17;38.87;;;;;;;8.61;88.68;96345.47;5094998;28;20532;-81
2023/01/01 10:15:54;;;;;;;58.03;34.90;;;;;;;8.83;88.78;96341.69;5094895;28;20447;-81
2023/01/01 10:18:26;;;;;;;61.40;36.10;;;;;;;9.01;88.23;96343.31;5095135;28;20850;-81
2023/01/01 10:21:01;;;;;;;64.60;37.43;;;;;;;9.11;87.59;96334.00;5095063;28;20452;-81
2023/01/01 10:23:33;;;;;;;57.40;38.50;;;;;;;9.10;87.46;96327.09;5042928;28;20439;-81
2023/01/01 10:26:07;;;;;;;52.63;35.13;;;;;;;9.20;86.95;96330.88;5094786;28;20524;-81
2023/01/01 10:28:43;;;;;;;61.17;35.23;;;;;;;9.26;86.71;96333.16;5095176;28;20523;-81
2023/01/01 10:31:17;;;;;;;57.60;36.17;;;;;;;9.28;87.25;96331.28;5094904;28;20428;-81
2023/01/01 10:33:45;;;;;;;54.43;34.10;;;;;;;9.35;86.49;96329.16;5094672;28;20487;-81
2023/01/01 10:36:16;;;;;;;56.33;36.63;;;;;;;9.33;86.20;96328.41;5094698;28;20997;-80
2023/01/01 10:38:43;;;;;;;54.20;33.30;;;;;;;9.24;86.98;96327.13;5094853;28;20501;-80
2023/01/01 10:41:12;;;;;;;53.73;32.53;;;;;;;9.26;86.60;96321.84;5059154;28;20433;-81
2023/01/01 10:43:40;;;;;;;53.90;33.00;;;;;;;9.29;86.44;96317.28;5094540;28;20440;-81
2023/01/01 10:46:09;;;;;;;53.93;34.17;;;;;;;9.38;86.62;96318.50;5094636;28;20443;-81
2023/01/01 10:48:36;;;;;;;45.63;31.97;;;;;;;9.55;86.15;96301.84;5094505;28;20493;-81
2023/01/01 10:51:06;;;;;;;46.87;29.93;;;;;;;9.55;85.85;96309.69;5094441;28;20445;-81
2023/01/01 10:53:36;;;;;;;47.97;31.50;;;;;;;9.65;85.43;96300.34;5094840;28;20488;-81
2023/01/01 10:56:06;;;;;;;52.27;30.80;;;;;;;9.77;84.89;96302.25;5094279;28;20437;-81
2023/01/01 10:58:37;;;;;;;52.73;29.73;;;;;;;9.75;84.62;96293.63;5094430;28;20448;-80
2023/01/01 11:01:07;;;;;;;46.30;29.47;;;;;;;9.84;85.39;96285.22;5094417;28;20436;-80
2023/01/01 11:03:34;;;;;;;48.37;29.90;;;;;;;9.96;84.87;96274.94;5094087;28;20448;-81
2023/01/01 11:06:20;;;;;;;41.90;28.33;;;;;;;10.06;84.23;96273.44;5094502;28;20562;-81
2023/01/01 11:08:49;;;;;;;42.60;28.67;;;;;;;10.16;83.12;96272.81;4992510;28;20453;-81
2023/01/01 11:11:22;;;;;;;39.07;26.27;;;;;;;10.22;83.83;96271.63;4992585;28;20452;-81
2023/01/01 11:13:52;;;;;;;47.00;28.10;;;;;;;10.20;82.93;96270.84;4992355;28;20511;-81
2023/01/01 11:16:21;;;;;;;44.17;28.90;;;;;;;10.27;82.80;96271.31;4992263;28;20457;-81
2023/01/01 11:18:49;;;;;;;38.47;25.63;;;;;;;10.44;82.75;96265.88;4992445;28;20449;-81
2023/01/01 11:21:21;;;;;;;43.70;27.10;;;;;;;10.58;82.52;96259.75;4992122;28;20444;-81
2023/01/01 11:23:50;;;;;;;41.17;27.57;;;;;;;10.50;82.19;96260.25;4992342;28;20540;-81
2023/01/01 11:26:25;;;;;;;43.57;31.10;;;;;;;10.48;81.94;96252.47;4992147;28;20918;-81
2023/01/01 11:29:03;;;;;;;42.43;27.03;;;;;;;10.64;81.33;96262.00;4992135;28;20829;-81
2023/01/01 11:31:36;;;;;;;36.87;26.30;;;;;;;10.77;81.07;96249.78;4992110;28;20450;-81
2023/01/01 11:34:04;;;;;;;42.87;26.87;;;;;;;10.92;80.66;96250.59;4991782;28;21020;-81
2023/01/01 11:36:33;;;;;;;39.13;27.77;;;;;;;10.88;79.54;96249.09;4991864;28;20567;-81